Time;durP1;ratioP1;P1;durP2;ratioP2;P2;SDS_P1;SDS_P2;PMS_P1;PMS_P2;Temp;Humidity;BMP_temperature;BMP_pressure;BME280_temperature;BME280_humidity;BME280_pressure;Samples;Min_cycle;Max_cycle;Signal;HPM_P1;HPM_P2
2022/08/06 00:01:35;;;;;;;1.53;1.43;;;25.70;39.80;;;;;;5076121;28;20449;-85
2022/08/06 00:04:03;;;;;;;2.20;2.00;;;25.60;39.50;;;;;;5075247;28;20465;-86
2022/08/06 00:06:30;;;;;;;2.40;1.87;;;25.60;40.10;;;;;;5074186;28;20486;-85
2022/08/06 00:08:57;;;;;;;1.87;1.77;;;25.60;40.30;;;;;;5071474;28;20506;-85
2022/08/06 00:11:24;;;;;;;2.20;2.10;;;25.70;40.40;;;;;;5090948;28;20451;-85
2022/08/06 00:13:51;;;;;;;2.03;1.87;;;25.60;40.10;;;;;;5076414;28;20470;-88
2022/08/06 00:16:18;;;;;;;2.20;2.00;;;25.60;40.60;;;;;;5071146;28;20522;-86
2022/08/06 00:18:45;;;;;;;2.80;1.73;;;25.60;40.40;;;;;;5092716;28;20972;-86
2022/08/06 00:21:13;;;;;;;2.73;1.90;;;25.70;40.70;;;;;;5072704;28;20466;-86
2022/08/06 00:23:40;;;;;;;4.30;2.10;;;25.60;40.80;;;;;;5076885;28;20455;-86
2022/08/06 00:26:07;;;;;;;2.17;1.97;;;25.70;40.80;;;;;;5091618;28;20474;-85
2022/08/06 00:28:34;;;;;;;2.10;2.00;;;25.80;40.40;;;;;;5094220;28;20447;-86
2022/08/06 00:31:02;;;;;;;4.20;2.27;;;25.80;40.70;;;;;;5075132;28;20452;-88
2022/08/06 00:33:30;;;;;;;2.20;2.00;;;25.80;40.80;;;;;;5075947;28;20455;-85
2022/08/06 00:35:57;;;;;;;1.97;1.77;;;25.80;40.70;;;;;;5072289;28;20439;-85
2022/08/06 00:38:25;;;;;;;2.07;1.97;;;25.80;40.60;;;;;;5092705;28;20455;-88
2022/08/06 00:40:53;;;;;;;2.40;2.00;;;25.80;40.60;;;;;;5074698;28;20500;-87
2022/08/06 00:43:20;;;;;;;3.73;2.57;;;25.70;40.80;;;;;;5093574;28;20826;-86
2022/08/06 00:45:47;;;;;;;1.87;1.77;;;25.70;40.70;;;;;;5056070;28;20468;-85
2022/08/06 00:48:14;;;;;;;2.07;1.97;;;25.70;40.90;;;;;;5076591;28;20817;-86
2022/08/06 00:50:41;;;;;;;2.37;1.80;;;25.70;41.10;;;;;;5092677;28;20446;-86
2022/08/06 00:53:08;;;;;;;3.90;2.13;;;25.70;41.10;;;;;;5075383;28;20459;-86
2022/08/06 00:55:37;;;;;;;2.03;1.70;;;25.60;40.90;;;;;;5092417;28;20569;-85
2022/08/06 00:58:06;;;;;;;2.40;1.90;;;25.60;41.00;;;;;;5066627;28;20471;-86
2022/08/06 01:03:49;;;;;;;2.90;2.30;;;25.60;41.10;;;;;;5091353;28;20489;-86
2022/08/06 01:06:16;;;;;;;3.53;2.00;;;25.50;41.20;;;;;;5090641;28;20474;-86
2022/08/06 01:08:43;;;;;;;3.60;2.70;;;25.50;41.50;;;;;;5075804;28;20469;-85
2022/08/06 01:11:11;;;;;;;5.10;2.50;;;25.50;41.20;;;;;;5073005;28;21047;-86
2022/08/06 01:13:38;;;;;;;2.10;1.80;;;25.50;41.40;;;;;;5072928;28;20427;-85
2022/08/06 01:20:23;;;;;;;2.47;2.27;;;25.50;41.70;;;;;;5073244;28;20434;-87
2022/08/06 01:23:23;;;;;;;2.30;2.10;;;25.30;41.90;;;;;;5076361;28;20448;-85
2022/08/06 01:26:26;;;;;;;2.37;2.03;;;25.30;42.10;;;;;;5092178;28;20446;-86
2022/08/06 01:28:59;;;;;;;2.50;2.30;;;25.30;42.40;;;;;;5092113;28;20452;-85
2022/08/06 01:31:33;;;;;;;3.40;2.10;;;25.30;42.50;;;;;;5078643;28;20448;-86
2022/08/06 01:34:04;;;;;;;2.13;1.93;;;25.20;42.90;;;;;;5070021;28;20500;-86
2022/08/06 01:36:36;;;;;;;2.20;2.10;;;25.20;42.80;;;;;;5078685;28;20473;-86
2022/08/06 01:39:03;;;;;;;7.43;2.30;;;25.20;43.00;;;;;;5064800;28;20446;-87
2022/08/06 01:41:47;;;;;;;2.53;2.00;;;25.10;43.00;;;;;;5071857;28;20817;-86
2022/08/06 01:44:18;;;;;;;3.93;2.03;;;25.00;42.80;;;;;;5093135;28;20454;-85
2022/08/06 01:46:48;;;;;;;4.30;2.20;;;24.80;42.90;;;;;;5097227;28;20584;-88
2022/08/06 01:49:25;;;;;;;2.30;2.13;;;24.80;43.00;;;;;;5061469;28;20448;-85
2022/08/06 01:51:54;;;;;;;2.00;1.90;;;24.70;43.30;;;;;;5098524;28;20800;-85
2022/08/06 01:54:22;;;;;;;2.40;2.20;;;24.60;43.30;;;;;;5067730;28;20447;-85
2022/08/06 01:56:53;;;;;;;4.50;2.40;;;24.60;43.40;;;;;;5081563;28;20473;-85
2022/08/06 01:59:24;;;;;;;3.73;2.43;;;24.60;43.40;;;;;;5095855;28;20444;-85
2022/08/06 02:01:55;;;;;;;2.87;2.53;;;24.50;43.50;;;;;;5085843;28;20446;-85
2022/08/06 02:04:26;;;;;;;2.83;2.30;;;24.10;44.20;;;;;;5078332;28;21211;-86
2022/08/06 02:06:55;;;;;;;2.30;2.13;;;24.10;44.20;;;;;;5051206;28;20471;-83
2022/08/06 02:09:23;;;;;;;2.73;2.53;;;24.10;44.50;;;;;;5078454;28;20455;-85
2022/08/06 02:11:56;;;;;;;2.53;2.33;;;24.20;44.30;;;;;;5095890;28;21111;-85
2022/08/06 02:14:26;;;;;;;2.90;2.40;;;23.90;44.70;;;;;;5095426;28;20447;-86
2022/08/06 02:16:56;;;;;;;3.13;2.03;;;24.00;44.80;;;;;;5097145;28;20489;-85
2022/08/06 02:19:25;;;;;;;3.47;2.20;;;24.00;44.60;;;;;;5078159;28;20444;-88
2022/08/06 02:21:53;;;;;;;4.33;2.40;;;24.00;44.70;;;;;;5078829;28;20466;-86
2022/08/06 02:24:23;;;;;;;2.77;2.50;;;24.00;44.60;;;;;;5098277;28;20947;-86
2022/08/06 02:26:50;;;;;;;3.63;2.50;;;23.90;44.80;;;;;;5062219;28;20463;-86
2022/08/06 02:29:19;;;;;;;4.57;2.90;;;23.80;44.70;;;;;;5061393;28;20857;-87
2022/08/06 02:31:48;;;;;;;2.97;2.63;;;23.70;45.10;;;;;;5093655;28;20455;-87
2022/08/06 02:34:15;;;;;;;3.40;2.60;;;23.70;44.90;;;;;;5073766;28;20451;-85
2022/08/06 02:36:46;;;;;;;3.30;3.00;;;23.90;44.90;;;;;;5078171;28;20471;-85
2022/08/06 02:39:22;;;;;;;3.83;3.53;;;23.90;44.90;;;;;;5095628;28;20443;-86
2022/08/06 02:41:57;;;;;;;2.67;2.47;;;24.00;44.70;;;;;;5076140;28;20444;-86
2022/08/06 02:44:40;;;;;;;2.80;2.43;;;23.90;44.90;;;;;;5078337;28;20442;-86
2022/08/06 02:47:13;;;;;;;2.90;2.70;;;23.90;44.90;;;;;;5077562;28;20903;-86
2022/08/06 02:49:45;;;;;;;3.07;2.87;;;23.90;45.00;;;;;;5071212;28;20440;-88
2022/08/06 02:52:17;;;;;;;2.90;2.70;;;23.90;44.70;;;;;;5095245;28;20837;-85
2022/08/06 02:54:50;;;;;;;9.33;4.27;;;24.00;44.50;;;;;;5078433;28;20961;-87
2022/08/06 02:57:29;;;;;;;9.37;2.93;;;23.70;44.90;;;;;;5085658;28;20465;-86
2022/08/06 03:00:01;;;;;;;3.20;2.73;;;23.80;44.90;;;;;;5090860;28;20535;-86
2022/08/06 03:02:33;;;;;;;5.83;3.33;;;23.80;45.20;;;;;;5056808;28;20819;-85
2022/08/06 03:05:02;;;;;;;3.63;3.13;;;23.80;45.00;;;;;;5058504;28;20443;-87
2022/08/06 03:07:32;;;;;;;4.90;2.77;;;23.60;45.40;;;;;;5073990;28;20485;-86
2022/08/06 03:10:01;;;;;;;3.60;2.50;;;23.70;45.30;;;;;;5094750;28;20449;-86
2022/08/06 03:12:55;;;;;;;2.60;2.40;;;23.80;45.20;;;;;;5077149;28;20853;-85
2022/08/06 03:15:25;;;;;;;3.40;2.70;;;23.90;44.90;;;;;;5081988;28;20460;-87
2022/08/06 03:17:58;;;;;;;3.23;2.80;;;23.90;44.80;;;;;;5077584;28;20482;-85
2022/08/06 03:20:27;;;;;;;2.83;2.40;;;23.90;44.80;;;;;;5088587;28;21171;-86
2022/08/06 03:22:59;;;;;;;4.07;2.37;;;24.00;44.50;;;;;;5093636;28;20450;-85
2022/08/06 03:25:28;;;;;;;2.80;2.30;;;24.00;44.20;;;;;;5090715;28;21485;-87
2022/08/06 03:27:56;;;;;;;2.47;2.17;;;24.00;44.50;;;;;;5061707;28;20552;-86
2022/08/06 03:30:24;;;;;;;2.43;2.23;;;23.90;44.50;;;;;;5074687;28;20462;-87
2022/08/06 03:32:53;;;;;;;2.40;2.20;;;23.90;44.40;;;;;;5078018;28;20461;-85
2022/08/06 03:35:20;;;;;;;4.27;2.40;;;23.80;44.50;;;;;;5075216;28;20452;-84
2022/08/06 03:37:50;;;;;;;2.70;2.50;;;23.80;44.50;;;;;;5059185;28;20474;-85
2022/08/06 03:40:19;;;;;;;2.50;2.30;;;23.80;44.70;;;;;;5076421;28;20456;-86
2022/08/06 03:42:46;;;;;;;3.50;2.80;;;23.80;44.70;;;;;;5079700;28;20491;-86
2022/08/06 03:45:14;;;;;;;3.30;2.43;;;23.70;44.50;;;;;;5064130;28;20795;-86
2022/08/06 03:47:44;;;;;;;2.20;2.00;;;23.70;44.60;;;;;;5061563;28;20491;-87
2022/08/06 03:50:44;;;;;;;2.77;2.30;;;23.60;44.50;;;;;;5073652;28;20458;-87
2022/08/06 03:53:18;;;;;;;2.97;2.47;;;23.60;44.80;;;;;;5068328;28;20645;-85
2022/08/06 03:55:47;;;;;;;4.20;2.23;;;23.50;44.70;;;;;;5089717;28;20442;-86
2022/08/06 03:58:15;;;;;;;3.40;2.27;;;23.50;44.90;;;;;;5089882;28;21097;-87
2022/08/06 04:00:47;;;;;;;2.67;2.43;;;23.50;45.10;;;;;;5074402;28;20457;-86
2022/08/06 04:03:16;;;;;;;3.97;3.10;;;23.40;45.70;;;;;;5095317;28;20452;-86
2022/08/06 04:05:45;;;;;;;2.33;2.23;;;23.40;45.20;;;;;;5093282;28;21159;-84
2022/08/06 04:08:15;;;;;;;4.03;2.27;;;23.40;45.20;;;;;;5081574;28;20563;-86
2022/08/06 04:10:44;;;;;;;3.40;2.40;;;23.40;45.30;;;;;;5095749;28;20458;-85
2022/08/06 04:13:14;;;;;;;4.73;2.50;;;23.30;45.40;;;;;;5095235;28;20538;-86
2022/08/06 04:15:42;;;;;;;2.87;2.53;;;23.30;45.40;;;;;;5060149;28;21081;-86
2022/08/06 04:18:36;;;;;;;3.50;3.27;;;23.30;46.50;;;;;;5066322;28;21047;-86
2022/08/06 04:21:06;;;;;;;7.10;2.83;;;23.20;46.30;;;;;;5073569;28;21946;-85
2022/08/06 04:23:34;;;;;;;4.77;2.60;;;23.20;46.20;;;;;;5059587;28;20474;-87
2022/08/06 04:28:57;;;;;;;2.90;2.53;;;23.20;46.80;;;;;;5092159;28;21004;-86
2022/08/06 04:31:28;;;;;;;2.60;2.40;;;23.20;46.70;;;;;;5075290;28;20452;-86
2022/08/06 04:33:57;;;;;;;3.20;3.00;;;23.00;46.90;;;;;;5075337;28;21255;-85
2022/08/06 04:36:25;;;;;;;4.70;3.20;;;23.00;47.00;;;;;;5083084;28;21320;-86
2022/08/06 04:38:53;;;;;;;4.70;2.43;;;23.00;46.80;;;;;;5075874;28;20458;-84
2022/08/06 04:41:21;;;;;;;2.83;2.63;;;23.00;46.80;;;;;;5093615;28;21194;-86
2022/08/06 04:43:48;;;;;;;4.00;2.87;;;23.00;47.00;;;;;;5092510;28;20451;-85
2022/08/06 04:46:16;;;;;;;2.70;2.50;;;22.80;46.30;;;;;;5076351;28;20471;-87
2022/08/06 04:48:43;;;;;;;2.63;2.43;;;22.30;47.50;;;;;;5057836;28;20477;-85
2022/08/06 04:51:10;;;;;;;6.10;2.97;;;22.10;48.40;;;;;;5092089;28;20826;-85
2022/08/06 04:53:39;;;;;;;3.83;2.37;;;22.10;48.20;;;;;;5094505;28;20457;-85
2022/08/06 04:56:07;;;;;;;3.33;3.03;;;22.10;49.00;;;;;;5058250;28;20554;-85
2022/08/06 04:58:59;;;;;;;5.10;3.13;;;22.40;49.20;;;;;;5093757;28;20423;-85
2022/08/06 05:01:26;;;;;;;4.20;3.00;;;22.20;49.30;;;;;;5065624;28;20545;-85
2022/08/06 05:03:53;;;;;;;3.23;3.00;;;22.10;49.90;;;;;;5073571;28;20442;-84
2022/08/06 05:06:25;;;;;;;3.00;2.80;;;22.10;49.90;;;;;;5097620;28;20474;-86
2022/08/06 05:08:59;;;;;;;2.90;2.70;;;22.40;49.50;;;;;;5079682;28;20838;-85
2022/08/06 05:11:29;;;;;;;3.20;2.30;;;22.50;48.80;;;;;;5100351;28;20442;-85
2022/08/06 05:14:02;;;;;;;2.60;2.40;;;22.70;48.40;;;;;;5096587;28;20453;-85
2022/08/06 05:16:35;;;;;;;2.90;2.70;;;22.90;48.40;;;;;;5096064;28;20577;-85
2022/08/06 05:19:05;;;;;;;3.13;2.93;;;23.00;48.00;;;;;;5087203;28;20454;-86
2022/08/06 05:21:36;;;;;;;5.20;2.57;;;22.90;48.00;;;;;;5094471;28;20698;-85
2022/08/06 05:24:05;;;;;;;4.93;2.27;;;22.80;47.20;;;;;;5078585;28;20455;-85
2022/08/06 05:26:57;;;;;;;2.90;2.03;;;22.70;47.20;;;;;;5078018;28;20800;-85
2022/08/06 05:29:24;;;;;;;2.57;2.37;;;22.80;46.80;;;;;;5061530;28;20482;-85
2022/08/06 05:31:58;;;;;;;6.47;2.70;;;22.80;46.90;;;;;;5078056;28;20439;-85
2022/08/06 05:34:25;;;;;;;2.83;2.63;;;22.80;46.70;;;;;;5094554;28;21266;-85
2022/08/06 05:36:52;;;;;;;2.37;2.17;;;22.70;47.40;;;;;;5079246;28;20478;-85
2022/08/06 05:39:22;;;;;;;3.20;2.27;;;22.40;46.80;;;;;;5063153;28;20461;-85
2022/08/06 05:41:50;;;;;;;4.20;2.73;;;22.50;46.90;;;;;;5083841;28;21063;-86
2022/08/06 05:44:17;;;;;;;2.33;2.13;;;22.50;46.50;;;;;;5083381;28;20452;-85
2022/08/06 05:46:52;;;;;;;5.03;2.63;;;22.50;47.10;;;;;;5059665;28;20502;-87
2022/08/06 05:49:24;;;;;;;2.53;2.30;;;22.50;46.90;;;;;;5068377;28;20454;-85
2022/08/06 05:51:57;;;;;;;4.33;2.70;;;22.60;46.40;;;;;;5076608;28;20443;-85
2022/08/06 05:54:33;;;;;;;2.73;2.53;;;22.70;46.30;;;;;;5095235;28;21092;-85
2022/08/06 05:57:10;;;;;;;2.77;2.30;;;22.60;46.70;;;;;;5096896;28;20467;-85
2022/08/06 05:59:44;;;;;;;3.70;2.50;;;22.60;47.20;;;;;;5061738;28;20469;-86
2022/08/06 06:02:16;;;;;;;2.60;2.40;;;22.70;47.10;;;;;;5094116;28;20450;-88
2022/08/06 06:04:46;;;;;;;3.13;2.40;;;22.80;46.90;;;;;;5092931;28;20445;-87
2022/08/06 06:07:14;;;;;;;3.60;3.10;;;22.70;46.50;;;;;;5093646;28;20472;-85
2022/08/06 06:09:43;;;;;;;2.57;2.37;;;22.80;46.90;;;;;;5075425;28;20442;-85
2022/08/06 06:12:13;;;;;;;4.20;2.50;;;22.90;46.90;;;;;;5074873;28;20451;-87
2022/08/06 06:14:43;;;;;;;2.60;2.40;;;22.90;46.40;;;;;;5093481;28;20608;-85
2022/08/06 06:17:25;;;;;;;3.00;2.23;;;23.00;46.50;;;;;;5094018;28;20544;-84
2022/08/06 06:20:15;;;;;;;2.97;2.40;;;23.10;46.00;;;;;;5091239;28;20827;-85
2022/08/06 06:22:52;;;;;;;3.23;2.77;;;23.00;46.20;;;;;;5079000;28;20559;-85
2022/08/06 06:25:25;;;;;;;2.73;2.40;;;23.10;46.00;;;;;;5093835;28;20454;-85
2022/08/06 06:28:00;;;;;;;2.00;1.90;;;23.00;45.80;;;;;;5093929;28;21001;-85
2022/08/06 06:30:39;;;;;;;5.50;2.70;;;23.10;45.40;;;;;;5073024;28;20549;-85
2022/08/06 06:33:15;;;;;;;2.10;1.90;;;22.80;45.40;;;;;;5065361;28;20447;-85
2022/08/06 06:35:48;;;;;;;3.63;2.20;;;22.90;45.10;;;;;;5079969;28;20529;-86
2022/08/06 06:38:38;;;;;;;4.50;1.97;;;22.90;44.30;;;;;;5080823;28;20482;-86
2022/08/06 06:41:13;;;;;;;2.53;1.70;;;22.90;44.20;;;;;;5065286;28;20442;-86
2022/08/06 06:43:45;;;;;;;1.73;1.63;;;23.20;44.30;;;;;;5095568;28;20450;-85
2022/08/06 06:46:22;;;;;;;1.80;1.70;;;23.30;43.10;;;;;;5094251;28;20456;-85
2022/08/06 06:48:52;;;;;;;2.17;1.43;;;23.20;42.70;;;;;;5091250;28;20517;-84
2022/08/06 06:51:32;;;;;;;1.70;1.60;;;23.40;42.60;;;;;;5077932;28;20448;-85
2022/08/06 06:54:00;;;;;;;2.00;1.90;;;23.20;41.80;;;;;;5070079;28;20452;-84
2022/08/06 06:56:40;;;;;;;1.97;1.70;;;23.10;41.60;;;;;;5078488;28;20488;-85
2022/08/06 06:59:13;;;;;;;2.37;1.50;;;23.30;42.30;;;;;;5090313;28;20430;-85
2022/08/06 07:01:41;;;;;;;1.37;1.27;;;23.60;41.10;;;;;;5059193;28;21147;-84
2022/08/06 07:04:36;;;;;;;1.20;1.10;;;23.80;40.10;;;;;;5088532;28;20455;-85
2022/08/06 07:07:04;;;;;;;3.97;1.50;;;23.90;39.40;;;;;;5090344;28;20471;-85
2022/08/06 07:09:34;;;;;;;1.63;1.20;;;24.00;38.90;;;;;;5093015;28;20470;-86
2022/08/06 07:12:04;;;;;;;1.63;1.10;;;23.90;37.30;;;;;;5066758;28;20484;-84
2022/08/06 07:14:58;;;;;;;1.37;1.27;;;23.90;37.90;;;;;;5095231;28;20534;-85
2022/08/06 07:17:27;;;;;;;1.33;1.20;;;24.00;37.40;;;;;;5090090;28;20490;-85
2022/08/06 07:19:57;;;;;;;2.37;1.20;;;24.10;37.30;;;;;;5094374;28;20479;-86
2022/08/06 07:22:25;;;;;;;2.17;1.03;;;24.10;37.10;;;;;;5091359;28;20450;-85
2022/08/06 07:24:57;;;;;;;2.67;1.17;;;24.00;36.20;;;;;;5091237;28;21033;-86
2022/08/06 07:27:27;;;;;;;1.33;1.23;;;23.70;36.90;;;;;;5086935;28;20467;-87
2022/08/06 07:29:57;;;;;;;1.20;1.10;;;23.80;37.10;;;;;;5063350;28;21195;-87
2022/08/06 07:32:24;;;;;;;2.20;1.10;;;24.00;36.70;;;;;;5067996;28;20453;-87
2022/08/06 07:34:53;;;;;;;2.80;1.10;;;23.90;36.00;;;;;;5070124;28;20542;-87
2022/08/06 07:37:21;;;;;;;6.23;1.30;;;23.90;37.30;;;;;;5067011;28;20475;-87
2022/08/06 07:39:51;;;;;;;1.87;1.40;;;24.00;36.30;;;;;;5067580;28;21332;-87
2022/08/06 07:42:19;;;;;;;1.90;1.30;;;24.20;36.60;;;;;;5083907;28;20458;-87
2022/08/06 07:44:51;;;;;;;3.90;1.27;;;24.20;35.70;;;;;;5063078;28;20462;-87
2022/08/06 07:47:21;;;;;;;1.10;1.00;;;24.30;35.20;;;;;;5066830;28;20479;-88
2022/08/06 07:49:54;;;;;;;1.47;1.00;;;24.40;35.40;;;;;;5068225;28;20474;-87
2022/08/06 07:52:22;;;;;;;1.20;1.10;;;24.70;34.80;;;;;;5070486;28;20569;-86
2022/08/06 07:54:50;;;;;;;1.13;1.00;;;24.70;34.20;;;;;;5086473;28;20480;-89
2022/08/06 07:57:17;;;;;;;1.00;0.90;;;24.70;34.10;;;;;;5041926;28;20474;-87
2022/08/06 07:59:47;;;;;;;5.80;1.40;;;24.80;34.30;;;;;;5068869;28;20525;-87
2022/08/06 08:02:15;;;;;;;1.60;1.10;;;24.60;34.00;;;;;;5074535;28;20452;-88
2022/08/06 08:07:42;;;;;;;4.10;1.10;;;25.20;32.50;;;;;;4970674;28;20505;-88
2022/08/06 08:10:34;;;;;;;1.80;1.00;;;25.00;33.00;;;;;;4972658;28;20443;-87
2022/08/06 08:13:01;;;;;;;1.93;1.30;;;24.90;32.30;;;;;;5027944;28;20458;-88
2022/08/06 08:18:45;;;;;;;1.03;0.93;;;25.20;32.40;;;;;;5063714;28;20510;-86
2022/08/06 08:21:14;;;;;;;2.07;1.00;;;25.00;32.30;;;;;;5051522;28;20451;-87
2022/08/06 08:23:42;;;;;;;14.97;3.50;;;25.30;32.70;;;;;;5071394;28;20485;-88
2022/08/06 08:26:34;;;;;;;3.83;1.77;;;25.50;31.60;;;;;;5073732;28;20485;-89
2022/08/06 08:29:01;;;;;;;2.80;1.20;;;25.60;31.60;;;;;;5072308;28;20998;-89
2022/08/06 08:31:29;;;;;;;1.57;1.10;;;25.50;31.10;;;;;;5071597;28;20529;-89
2022/08/06 08:33:56;;;;;;;1.30;0.93;;;25.70;31.50;;;;;;5064368;28;20444;-88
2022/08/06 08:36:23;;;;;;;2.00;0.90;;;25.80;32.00;;;;;;5069037;28;21030;-89
2022/08/06 08:38:52;;;;;;;1.70;1.07;;;26.10;31.80;;;;;;5059429;28;20447;-86
2022/08/06 08:41:22;;;;;;;1.07;0.90;;;25.90;30.80;;;;;;5086394;28;20448;-87
2022/08/06 08:43:56;;;;;;;2.33;1.10;;;26.00;31.40;;;;;;5095726;28;20538;-86
2022/08/06 08:46:25;;;;;;;1.20;1.10;;;26.10;31.00;;;;;;5099385;28;20846;-88
2022/08/06 08:48:55;;;;;;;1.67;1.00;;;25.90;30.90;;;;;;5079158;28;20958;-86
2022/08/06 08:51:24;;;;;;;3.80;1.10;;;26.10;31.00;;;;;;5058240;28;20471;-88
2022/08/06 08:53:54;;;;;;;2.20;1.20;;;26.30;31.30;;;;;;5089516;28;20463;-86
2022/08/06 08:56:22;;;;;;;2.33;1.00;;;26.60;29.80;;;;;;5088124;28;20474;-86
2022/08/06 08:58:50;;;;;;;1.77;1.10;;;26.40;30.50;;;;;;5070918;28;21153;-87
2022/08/06 09:01:17;;;;;;;3.40;3.10;;;26.30;29.90;;;;;;5076854;28;20463;-88
2022/08/06 09:03:44;;;;;;;2.33;1.20;;;26.10;29.50;;;;;;5056700;28;20455;-86
2022/08/06 09:06:14;;;;;;;1.00;0.90;;;26.20;29.90;;;;;;5087675;28;20455;-89
2022/08/06 09:08:41;;;;;;;2.27;1.17;;;26.30;31.50;;;;;;5072250;28;20477;-86
2022/08/06 09:11:08;;;;;;;2.20;1.20;;;26.50;30.00;;;;;;5056916;28;20524;-87
2022/08/06 09:13:35;;;;;;;1.43;0.93;;;26.70;29.60;;;;;;5088521;28;20438;-87
2022/08/06 09:16:02;;;;;;;1.87;1.20;;;26.70;29.30;;;;;;5090647;28;20446;-88
2022/08/06 09:18:41;;;;;;;1.40;0.93;;;26.80;30.00;;;;;;5090549;28;20530;-88
2022/08/06 09:21:08;;;;;;;1.10;1.00;;;26.60;29.00;;;;;;5054892;28;20452;-88
2022/08/06 09:23:39;;;;;;;1.10;1.00;;;26.80;29.00;;;;;;5090767;28;20459;-87
2022/08/06 09:28:57;;;;;;;0.90;0.90;;;27.10;28.10;;;;;;5069317;28;20494;-87
2022/08/06 09:31:24;;;;;;;2.90;1.20;;;27.20;27.90;;;;;;5070904;28;20450;-88
2022/08/06 09:33:58;;;;;;;1.80;1.10;;;27.20;28.80;;;;;;5058081;28;20448;-86
2022/08/06 09:36:25;;;;;;;1.63;1.10;;;27.40;28.10;;;;;;5080572;28;20466;-86
2022/08/06 09:38:55;;;;;;;1.63;1.00;;;27.50;27.70;;;;;;5090858;28;20451;-86
2022/08/06 09:41:24;;;;;;;1.70;0.97;;;27.60;28.10;;;;;;5090365;28;20541;-87
2022/08/06 09:43:53;;;;;;;2.80;1.10;;;27.70;27.30;;;;;;5075772;28;20442;-87
2022/08/06 09:46:38;;;;;;;1.73;1.10;;;27.90;27.70;;;;;;5071655;28;20853;-86
2022/08/06 09:49:05;;;;;;;2.30;1.00;;;27.80;26.90;;;;;;5090796;28;20462;-86
2022/08/06 09:51:34;;;;;;;5.90;1.20;;;27.90;26.90;;;;;;5092827;28;20457;-86
2022/08/06 09:54:05;;;;;;;6.80;1.20;;;27.90;27.00;;;;;;5088346;28;20504;-86
2022/08/06 09:56:58;;;;;;;3.40;1.20;;;28.30;26.70;;;;;;5090517;28;20469;-86
2022/08/06 09:59:25;;;;;;;2.80;1.00;;;28.30;26.30;;;;;;5070230;28;20454;-86
2022/08/06 10:01:54;;;;;;;2.80;1.20;;;28.40;26.40;;;;;;5090261;28;20833;-88
2022/08/06 10:04:26;;;;;;;0.80;0.80;;;28.80;26.80;;;;;;5060616;28;20458;-89
2022/08/06 10:06:55;;;;;;;1.67;1.07;;;28.90;25.00;;;;;;5090593;28;20471;-87
2022/08/06 10:09:24;;;;;;;1.73;1.10;;;28.90;25.10;;;;;;5072044;28;20451;-88
2022/08/06 10:11:52;;;;;;;1.37;1.27;;;28.80;25.40;;;;;;5053861;28;20452;-86
2022/08/06 10:14:23;;;;;;;2.07;0.83;;;28.80;24.30;;;;;;5069441;28;20443;-89
2022/08/06 10:17:04;;;;;;;3.20;1.10;;;28.70;24.80;;;;;;5073856;28;20471;-88
2022/08/06 10:19:32;;;;;;;1.10;1.00;;;28.70;25.30;;;;;;5091998;28;20440;-86
2022/08/06 10:22:05;;;;;;;0.90;0.80;;;28.90;25.00;;;;;;5090100;28;20463;-86
2022/08/06 10:25:02;;;;;;;1.00;0.90;;;28.70;25.40;;;;;;5065931;28;20447;-86
2022/08/06 10:27:32;;;;;;;1.37;0.90;;;29.20;26.20;;;;;;5071062;28;20579;-87
2022/08/06 10:30:03;;;;;;;1.10;1.00;;;29.60;24.80;;;;;;5088063;28;20475;-86
2022/08/06 10:33:01;;;;;;;2.33;1.10;;;29.90;25.00;;;;;;5090149;28;20474;-87
2022/08/06 10:35:28;;;;;;;2.00;1.03;;;30.00;24.20;;;;;;5089949;28;20462;-88
2022/08/06 10:37:59;;;;;;;1.60;1.23;;;30.00;24.50;;;;;;5065666;28;20555;-87
2022/08/06 10:40:28;;;;;;;1.10;1.00;;;29.60;24.50;;;;;;5071390;28;20448;-86
2022/08/06 10:42:57;;;;;;;1.30;1.10;;;29.90;25.10;;;;;;5054229;28;20456;-87
2022/08/06 10:45:24;;;;;;;2.63;1.10;;;29.90;24.70;;;;;;5069967;28;21271;-86
2022/08/06 10:47:51;;;;;;;0.90;0.83;;;30.10;24.90;;;;;;5077769;28;20543;-88
2022/08/06 10:50:18;;;;;;;0.80;0.80;;;30.20;23.50;;;;;;5071386;28;21020;-89
2022/08/06 10:52:46;;;;;;;3.33;0.97;;;30.40;23.30;;;;;;5074642;28;20462;-87
2022/08/06 10:55:13;;;;;;;0.90;0.80;;;30.30;22.50;;;;;;5072247;28;20452;-90
2022/08/06 10:57:43;;;;;;;1.00;0.90;;;30.00;22.70;;;;;;5072584;28;21051;-87
2022/08/06 11:03:14;;;;;;;1.83;0.90;;;30.20;21.90;;;;;;5052347;28;20499;-87
2022/08/06 11:05:41;;;;;;;1.67;0.90;;;30.30;22.10;;;;;;5091020;28;20971;-88
2022/08/06 11:08:33;;;;;;;2.00;0.90;;;30.50;21.60;;;;;;5072183;28;20836;-90
2022/08/06 11:11:17;;;;;;;0.97;0.80;;;30.70;21.60;;;;;;5058380;28;20848;-87
2022/08/06 11:13:59;;;;;;;1.40;1.00;;;30.50;21.30;;;;;;5078664;28;20443;-87
2022/08/06 11:16:28;;;;;;;2.30;0.90;;;30.00;22.30;;;;;;5079283;28;20478;-86
2022/08/06 11:19:04;;;;;;;2.83;1.00;;;30.30;21.70;;;;;;5051903;28;20451;-87
2022/08/06 11:21:42;;;;;;;3.50;1.03;;;30.20;22.10;;;;;;5047492;28;20458;-86
2022/08/06 11:24:34;;;;;;;1.47;0.90;;;30.20;23.10;;;;;;5060908;28;20435;-86
2022/08/06 11:27:01;;;;;;;1.00;0.83;;;29.80;22.30;;;;;;5055218;28;20970;-88
2022/08/06 11:29:30;;;;;;;1.10;0.80;;;29.80;22.50;;;;;;5067965;28;21918;-88
2022/08/06 11:31:57;;;;;;;6.40;1.30;;;30.20;22.70;;;;;;5089475;28;20443;-88
2022/08/06 11:34:43;;;;;;;1.33;0.90;;;30.50;22.10;;;;;;5051888;28;21175;-88
2022/08/06 11:37:10;;;;;;;1.10;1.00;;;30.60;22.30;;;;;;5067440;28;20467;-89
2022/08/06 11:40:07;;;;;;;1.03;0.90;;;30.70;22.00;;;;;;5067985;28;20479;-87
2022/08/06 11:42:42;;;;;;;1.00;0.90;;;31.00;22.20;;;;;;5070331;28;20455;-89
2022/08/06 11:45:11;;;;;;;1.00;0.93;;;31.00;21.20;;;;;;5059820;28;20451;-89
2022/08/06 11:48:04;;;;;;;1.90;0.90;;;30.80;21.50;;;;;;5091147;28;20463;-87
2022/08/06 11:50:31;;;;;;;1.67;0.80;;;30.90;21.30;;;;;;5070970;28;20630;-88
2022/08/06 11:52:58;;;;;;;1.10;0.90;;;30.80;21.30;;;;;;5088077;28;20450;-87
2022/08/06 11:55:26;;;;;;;3.13;0.80;;;30.80;20.30;;;;;;5052913;28;20448;-86
2022/08/06 11:58:20;;;;;;;0.90;0.77;;;31.00;21.10;;;;;;5087898;28;20463;-87
2022/08/06 12:00:58;;;;;;;0.97;0.70;;;31.20;20.90;;;;;;5083675;28;20466;-88
2022/08/06 12:03:38;;;;;;;1.30;0.97;;;31.20;21.30;;;;;;5054054;28;20435;-88
2022/08/06 12:06:21;;;;;;;1.57;0.73;;;31.30;21.00;;;;;;5087726;28;20438;-89
2022/08/06 12:09:06;;;;;;;1.10;0.80;;;30.90;21.40;;;;;;5054451;28;20442;-88
2022/08/06 12:11:35;;;;;;;1.20;0.90;;;31.10;21.60;;;;;;5076813;28;21184;-87
2022/08/06 12:14:02;;;;;;;1.10;1.00;;;31.10;21.70;;;;;;5052304;28;20548;-88
2022/08/06 12:16:35;;;;;;;4.50;1.50;;;30.90;22.20;;;;;;5085745;28;20580;-88
2022/08/06 12:19:04;;;;;;;1.73;1.20;;;31.20;22.90;;;;;;5054471;28;21187;-87
2022/08/06 12:21:31;;;;;;;1.77;1.07;;;31.70;21.80;;;;;;5075949;28;20487;-89
2022/08/06 12:23:58;;;;;;;1.10;0.83;;;31.50;22.10;;;;;;5064315;28;20967;-88
2022/08/06 12:26:31;;;;;;;4.33;1.00;;;31.60;22.40;;;;;;5052065;28;20487;-88
2022/08/06 12:29:03;;;;;;;2.20;0.90;;;32.00;21.70;;;;;;5086331;28;20470;-87
2022/08/06 12:31:33;;;;;;;4.00;0.90;;;31.90;20.40;;;;;;5077558;28;20492;-87
2022/08/06 12:34:01;;;;;;;3.47;1.07;;;31.90;21.60;;;;;;5055100;28;20443;-89
2022/08/06 12:36:30;;;;;;;1.13;0.87;;;31.80;21.40;;;;;;5088812;28;20473;-88
2022/08/06 12:38:59;;;;;;;2.97;0.90;;;31.70;20.80;;;;;;5072735;28;20463;-87
2022/08/06 12:41:41;;;;;;;2.43;0.90;;;31.90;21.10;;;;;;5085199;28;20483;-87
2022/08/06 12:44:10;;;;;;;1.20;1.00;;;32.20;20.50;;;;;;5063549;28;20503;-90
2022/08/06 12:46:38;;;;;;;1.77;0.87;;;32.00;20.80;;;;;;5071966;28;20900;-88
2022/08/06 12:49:06;;;;;;;1.37;0.80;;;31.90;20.60;;;;;;5062429;28;20443;-87
2022/08/06 12:51:33;;;;;;;1.10;0.80;;;32.10;20.30;;;;;;5070809;28;20479;-86
2022/08/06 12:54:03;;;;;;;2.87;0.90;;;32.10;20.00;;;;;;5045542;28;20443;-87
2022/08/06 12:56:34;;;;;;;2.80;0.90;;;32.10;20.00;;;;;;5085324;28;20494;-86
2022/08/06 12:59:04;;;;;;;2.90;0.90;;;32.10;20.30;;;;;;5089739;28;20935;-88
2022/08/06 13:01:33;;;;;;;5.80;0.80;;;31.90;19.60;;;;;;5088034;28;20439;-88
2022/08/06 13:04:03;;;;;;;1.30;0.87;;;31.80;20.10;;;;;;5058955;28;20483;-86
2022/08/06 13:06:33;;;;;;;0.90;0.80;;;32.00;19.80;;;;;;5068889;28;20475;-87
2022/08/06 13:09:00;;;;;;;1.73;0.80;;;32.20;20.20;;;;;;5053990;28;20436;-85
2022/08/06 13:11:35;;;;;;;4.10;1.20;;;32.30;19.40;;;;;;5068197;28;20479;-88
2022/08/06 13:14:10;;;;;;;2.60;0.90;;;32.60;19.90;;;;;;5084737;28;20529;-90
2022/08/06 13:16:42;;;;;;;2.40;0.90;;;32.80;19.80;;;;;;5088106;28;20479;-86
2022/08/06 13:19:12;;;;;;;3.73;0.90;;;32.50;19.30;;;;;;5086722;28;20953;-85
2022/08/06 13:21:40;;;;;;;2.87;0.97;;;32.40;19.40;;;;;;5057786;28;20473;-87
2022/08/06 13:24:08;;;;;;;0.80;0.80;;;32.70;19.60;;;;;;5057117;28;20466;-86
2022/08/06 13:26:48;;;;;;;1.00;0.80;;;32.70;19.70;;;;;;5054271;28;20475;-87
2022/08/06 13:29:17;;;;;;;2.07;0.80;;;32.90;19.10;;;;;;5073660;28;20449;-87
2022/08/06 13:31:45;;;;;;;1.50;0.87;;;32.90;19.40;;;;;;5092113;28;20569;-90
2022/08/06 13:34:15;;;;;;;1.87;0.93;;;32.90;19.30;;;;;;5074268;28;21062;-88